Xin Yan Tian — BPBA — position and weather

sailwx.info

Track history (hours):
 
Tides and Currents Weather Stations Pressure Air Temp Water Temp Dewpoint Dewpoint Depression Visibility Wind Speed Wind Dir Waves Ship Positions

Xin Yan Tian

Last reported at 2018-Jul-23 13:30 UTC. Time now 2018-Jul-23 13:52 UTC.
Position S 33°58' E 151°13'.

Length 279 m; draft 12.8 m.

Type: Cargo ship. MMSI: 413064000.

Date/timePositionNaut miles runAvg speedWind from/ knotsBaromVisibWave heightAir tempDewpointWater temp
2018-Jul-23 13:30S 33°58' E 151°13'0 0.0
2018-Jul-23 13:00S 33°58' E 151°13'0 0.0
2018-Jul-23 12:30S 33°58' E 151°13'0 0.0
2018-Jul-23 12:00S 33°58' E 151°13'0 0.0
2018-Jul-23 11:30S 33°58' E 151°13'0 0.0
2018-Jul-23 10:24S 33°58' E 151°13'0 0.0
2018-Jul-23 10:00S 33°58' E 151°13'0 0.0
2018-Jul-23 08:30S 33°58' E 151°13'0 0.0
2018-Jul-22 20:06S 33°58' E 151°13'0 0.1
2018-Jul-22 20:01S 33°58' E 151°13'1 1.8
2018-Jul-22 19:31S 33°59' E 151°12'511.0
2018-Jul-22 19:01S 34°01' E 151°18'4 8.4
2018-Jul-22 18:31S 33°60' E 151°23'713.4
2018-Jul-22 18:00S 33°55' E 151°28'816.7
2018-Jul-22 17:30S 33°48' E 151°34'816.7
2018-Jul-22 17:01S 33°41' E 151°40'816.4
2018-Jul-22 16:30S 33°35' E 151°46'2516.7
2018-Jul-22 15:00S 33°14' E 152°04'816.8
2018-Jul-22 14:30S 33°08' E 152°10'816.9
2018-Jul-22 14:01S 33°01' E 152°16'816.8
2018-Jul-22 13:30S 32°55' E 152°23'917.0
2018-Jul-22 13:00S 32°48' E 152°29'917.1
2018-Jul-22 12:30S 32°41' E 152°35'816.9
2018-Jul-22 12:00S 32°34' E 152°40'917.0
2018-Jul-22 11:30S 32°26' E 152°45'25017.3
2018-Jul-21 21:05S 28°22' E 153°45'117.0
2018-Jul-21 21:00S 28°21' E 153°45'816.4
2018-Jul-21 20:30S 28°13' E 153°45'816.8
2018-Jul-21 20:00S 28°04' E 153°45'917.1
2018-Jul-21 19:30S 27°56' E 153°46'917.9
2018-Jul-21 19:00S 27°47' E 153°46'918.4
2018-Jul-21 18:30S 27°38' E 153°47'918.4
2018-Jul-21 18:00S 27°28' E 153°46'1018.5
2018-Jul-21 17:29S 27°19' E 153°46'918.4
2018-Jul-21 17:00S 27°10' E 153°46'  
Track history (hours):
 
Tides and Currents Weather Stations Pressure Air Temp Water Temp Dewpoint Dewpoint Depression Visibility Wind Speed Wind Dir Waves Ship Positions

Xin Yan Tian

Last reported at 2018-Jul-23 13:30 UTC. Time now 2018-Jul-23 13:52 UTC.
Position S 33°58' E 151°13'.

Length 279 m; draft 12.8 m.

Type: Cargo ship. MMSI: 413064000.

Date/timePositionNaut miles runAvg speedWind from/ knotsBaromVisibWave heightAir tempDewpointWater temp
2018-Jul-23 13:30S 33°58' E 151°13'0 0.0
2018-Jul-23 13:00S 33°58' E 151°13'0 0.0
2018-Jul-23 12:30S 33°58' E 151°13'0 0.0
2018-Jul-23 12:00S 33°58' E 151°13'0 0.0
2018-Jul-23 11:30S 33°58' E 151°13'0 0.0
2018-Jul-23 10:24S 33°58' E 151°13'0 0.0
2018-Jul-23 10:00S 33°58' E 151°13'0 0.0
2018-Jul-23 08:30S 33°58' E 151°13'0 0.0
2018-Jul-22 20:06S 33°58' E 151°13'0 0.1
2018-Jul-22 20:01S 33°58' E 151°13'1 1.8
2018-Jul-22 19:31S 33°59' E 151°12'511.0
2018-Jul-22 19:01S 34°01' E 151°18'4 8.4
2018-Jul-22 18:31S 33°60' E 151°23'713.4
2018-Jul-22 18:00S 33°55' E 151°28'816.7
2018-Jul-22 17:30S 33°48' E 151°34'816.7
2018-Jul-22 17:01S 33°41' E 151°40'816.4
2018-Jul-22 16:30S 33°35' E 151°46'2516.7
2018-Jul-22 15:00S 33°14' E 152°04'816.8
2018-Jul-22 14:30S 33°08' E 152°10'816.9
2018-Jul-22 14:01S 33°01' E 152°16'816.8
2018-Jul-22 13:30S 32°55' E 152°23'917.0
2018-Jul-22 13:00S 32°48' E 152°29'917.1
2018-Jul-22 12:30S 32°41' E 152°35'816.9
2018-Jul-22 12:00S 32°34' E 152°40'917.0
2018-Jul-22 11:30S 32°26' E 152°45'25017.3
2018-Jul-21 21:05S 28°22' E 153°45'117.0
2018-Jul-21 21:00S 28°21' E 153°45'816.4
2018-Jul-21 20:30S 28°13' E 153°45'816.8
2018-Jul-21 20:00S 28°04' E 153°45'917.1
2018-Jul-21 19:30S 27°56' E 153°46'917.9
2018-Jul-21 19:00S 27°47' E 153°46'918.4
2018-Jul-21 18:30S 27°38' E 153°47'918.4
2018-Jul-21 18:00S 27°28' E 153°46'1018.5
2018-Jul-21 17:29S 27°19' E 153°46'918.4
2018-Jul-21 17:00S 27°10' E 153°46'  

Dump ship's entire track history